Time;durP1;ratioP1;P1;durP2;ratioP2;P2;SDS_P1;SDS_P2;PMS_P1;PMS_P2;Temp;Humidity;BMP_temperature;BMP_pressure;BME280_temperature;BME280_humidity;BME280_pressure;Samples;Min_cycle;Max_cycle;Signal;HPM_P1;HPM_P2
2023/03/31 00:01:03;;;;;;;58.13;28.73;;;;;;;3.14;43.48;100234.23;124855;1099;101836;-72
2023/03/31 00:03:37;;;;;;;64.10;27.07;;;;;;;3.14;43.31;100229.05;124886;1099;104239;-72
2023/03/31 00:06:10;;;;;;;50.87;25.30;;;;;;;3.12;43.89;100229.78;124848;1099;103241;-72
2023/03/31 00:08:41;;;;;;;55.80;24.83;;;;;;;3.10;43.71;100227.09;124835;1099;110720;-72
2023/03/31 00:11:13;;;;;;;49.73;24.23;;;;;;;3.11;43.68;100230.57;124810;1099;103165;-72
2023/03/31 00:13:44;;;;;;;47.77;23.60;;;;;;;3.12;43.06;100232.38;124823;1099;102031;-72
2023/03/31 00:16:15;;;;;;;47.53;22.00;;;;;;;3.11;43.90;100228.86;124801;1099;101935;-73
2023/03/31 00:18:49;;;;;;;49.07;22.17;;;;;;;3.12;43.40;100224.59;124773;1098;104221;-72
2023/03/31 00:21:28;;;;;;;47.67;21.70;;;;;;;3.12;43.77;100209.04;124871;1099;101907;-71
2023/03/31 00:24:02;;;;;;;44.43;21.93;;;;;;;3.10;43.76;100201.17;124790;1099;104169;-71
2023/03/31 00:26:34;;;;;;;44.77;21.40;;;;;;;3.10;43.80;100189.88;124817;1099;101922;-73
2023/03/31 00:29:09;;;;;;;45.37;21.23;;;;;;;3.09;44.10;100190.70;124778;1099;107743;-71
2023/03/31 00:31:40;;;;;;;48.60;21.40;;;;;;;3.09;43.58;100199.37;124817;1099;101897;-71
2023/03/31 00:34:11;;;;;;;40.40;19.50;;;;;;;3.10;43.58;100197.66;124750;1099;101912;-72
2023/03/31 00:36:46;;;;;;;44.00;19.07;;;;;;;3.12;44.04;100206.45;124717;1099;102157;-72
2023/03/31 00:39:18;;;;;;;41.23;19.50;;;;;;;3.15;44.20;100196.27;124338;1099;101933;-72
2023/03/31 00:41:50;;;;;;;45.27;20.67;;;;;;;3.17;43.51;100184.27;124801;1099;104239;-72
2023/03/31 00:44:25;;;;;;;49.30;21.37;;;;;;;3.17;44.05;100179.97;124368;1099;104220;-72
2023/03/31 00:47:02;;;;;;;45.13;21.30;;;;;;;3.17;43.72;100179.97;124617;1099;102385;-72
2023/03/31 00:49:39;;;;;;;44.30;20.10;;;;;;;3.16;43.37;100172.98;124806;1099;104251;-72
2023/03/31 00:52:17;;;;;;;50.33;20.70;;;;;;;3.17;43.81;100179.09;124897;1099;101897;-73
2023/03/31 00:54:52;;;;;;;41.57;18.90;;;;;;;3.19;43.98;100174.88;124736;1099;104245;-72
2023/03/31 00:57:27;;;;;;;42.40;19.13;;;;;;;3.19;44.25;100169.70;124861;1099;101836;-72
2023/03/31 01:00:08;;;;;;;42.63;19.03;;;;;;;3.22;44.72;100172.47;124691;1099;110859;-72
2023/03/31 01:02:40;;;;;;;44.23;19.40;;;;;;;3.27;43.85;100162.37;124790;1099;101876;-72
2023/03/31 01:05:12;;;;;;;46.30;21.90;;;;;;;3.31;43.97;100169.55;124791;1099;102470;-73
2023/03/31 01:07:46;;;;;;;43.43;19.87;;;;;;;3.32;44.72;100161.86;124751;1099;104195;-72
2023/03/31 01:10:18;;;;;;;43.67;18.57;;;;;;;3.33;44.65;100163.63;124713;1099;104281;-72
2023/03/31 01:12:53;;;;;;;42.57;19.83;;;;;;;3.35;44.39;100158.52;124766;1098;102515;-72
2023/03/31 01:15:24;;;;;;;40.83;18.83;;;;;;;3.39;44.26;100152.73;124354;1099;101865;-71
2023/03/31 01:17:57;;;;;;;43.10;19.67;;;;;;;3.36;44.01;100150.84;124787;1099;104190;-72
2023/03/31 01:20:40;;;;;;;43.50;19.43;;;;;;;3.40;44.79;100151.94;124299;1099;104191;-71
2023/03/31 01:23:48;;;;;;;44.53;21.10;;;;;;;3.45;44.08;100142.70;124768;1099;104251;-71
2023/03/31 01:26:41;;;;;;;38.05;19.05;;;;;;;3.49;44.47;100144.69;124575;1099;104166;-72
2023/03/31 01:29:39;;;;;;;46.77;21.82;;;;;;;3.51;44.79;100139.59;124789;1099;101884;-72
2023/03/31 01:32:43;;;;;;;46.80;20.30;;;;;;;3.52;44.91;100133.58;124800;1099;104195;-72
2023/03/31 01:35:45;;;;;;;41.70;19.83;;;;;;;3.57;44.39;100126.97;124682;1099;104232;-72
2023/03/31 01:38:52;;;;;;;37.23;17.40;;;;;;;3.62;44.32;100129.84;124821;1099;104316;-72
2023/03/31 01:41:42;;;;;;;40.23;17.77;;;;;;;3.66;44.93;100113.61;124840;1099;110845;-73
2023/03/31 01:44:24;;;;;;;41.20;17.83;;;;;;;3.69;44.58;100106.89;124441;1099;104277;-72
2023/03/31 01:46:58;;;;;;;35.43;17.00;;;;;;;3.72;44.19;100106.18;124789;1098;104233;-71
2023/03/31 01:49:39;;;;;;;35.70;17.20;;;;;;;3.74;45.09;100102.88;124751;1099;104402;-72
2023/03/31 01:52:20;;;;;;;39.57;18.83;;;;;;;3.74;44.53;100091.58;124751;1099;101922;-72
2023/03/31 01:54:56;;;;;;;39.30;16.67;;;;;;;3.76;44.51;100092.58;124703;1099;104654;-72
2023/03/31 01:57:31;;;;;;;40.57;17.13;;;;;;;3.81;44.85;100092.84;124813;1099;104280;-72
2023/03/31 02:00:08;;;;;;;45.80;18.07;;;;;;;3.82;44.49;100077.35;124342;1099;104195;-72
2023/03/31 02:02:48;;;;;;;38.73;17.10;;;;;;;3.87;45.02;100075.02;124827;1099;104166;-72
2023/03/31 02:05:24;;;;;;;40.03;17.03;;;;;;;3.90;44.95;100063.09;124316;1099;104331;-72
2023/03/31 02:08:00;;;;;;;38.20;18.23;;;;;;;3.92;45.26;100068.36;124733;1099;104208;-72
2023/03/31 02:10:33;;;;;;;36.97;17.33;;;;;;;3.92;44.92;100056.27;124692;1097;104242;-71
2023/03/31 02:13:07;;;;;;;39.30;17.37;;;;;;;3.93;44.27;100058.06;124772;1099;104172;-71
2023/03/31 02:15:43;;;;;;;39.67;17.25;;;;;;;3.91;44.97;100051.91;124536;1099;104176;-72
2023/03/31 02:18:19;;;;;;;38.73;18.77;;;;;;;3.96;45.28;100050.45;124774;1099;101964;-71
2023/03/31 02:20:56;;;;;;;46.10;19.67;;;;;;;3.98;45.08;100044.45;124375;1099;104190;-71
2023/03/31 02:23:30;;;;;;;45.40;19.23;;;;;;;3.96;45.07;100034.88;124801;1099;101855;-72
2023/03/31 02:26:20;;;;;;;49.30;20.33;;;;;;;3.98;44.92;100040.14;124742;1099;104213;-72
2023/03/31 02:29:03;;;;;;;41.43;17.87;;;;;;;3.96;45.00;100032.27;124581;1099;104337;-71
2023/03/31 02:31:46;;;;;;;41.77;19.60;;;;;;;3.96;44.38;100034.88;124598;1099;103596;-71
2023/03/31 02:34:18;;;;;;;40.23;17.90;;;;;;;3.98;45.06;100036.67;124548;1099;101839;-71
2023/03/31 02:36:51;;;;;;;39.07;15.83;;;;;;;3.99;44.44;100035.84;124658;1099;104217;-71
2023/03/31 02:39:28;;;;;;;39.03;17.07;;;;;;;3.98;44.87;100034.95;124613;1099;104241;-70
2023/03/31 02:42:05;;;;;;;38.90;17.07;;;;;;;4.00;45.26;100042.83;124737;1099;105450;-71
2023/03/31 02:44:38;;;;;;;37.00;15.60;;;;;;;4.01;44.80;100035.12;124893;1099;104201;-72
2023/03/31 02:47:11;;;;;;;35.50;16.33;;;;;;;4.02;44.73;100039.52;124728;1098;104172;-73
2023/03/31 02:49:46;;;;;;;30.57;15.23;;;;;;;4.04;45.17;100037.88;124370;1099;104114;-70
2023/03/31 02:52:41;;;;;;;33.40;16.10;;;;;;;4.05;44.92;100036.17;124371;1099;103140;-71
2023/03/31 02:55:42;;;;;;;44.00;16.30;;;;;;;4.04;44.99;100032.69;124371;1099;104160;-71
2023/03/31 02:58:51;;;;;;;38.20;16.27;;;;;;;4.06;45.13;100030.18;124334;1100;104239;-70
2023/03/31 03:01:38;;;;;;;36.27;14.57;;;;;;;4.07;44.95;100026.78;124496;1098;104312;-71
2023/03/31 03:04:20;;;;;;;37.17;15.67;;;;;;;4.07;44.82;100014.69;124220;1099;104306;-72
2023/03/31 03:06:59;;;;;;;37.73;15.57;;;;;;;4.06;44.62;100009.41;124563;1099;101982;-70
2023/03/31 03:09:44;;;;;;;33.97;14.60;;;;;;;4.04;45.15;100008.44;124247;1099;101860;-73
2023/03/31 03:12:37;;;;;;;33.13;14.13;;;;;;;4.03;44.39;100009.24;125080;1099;104211;-71
2023/03/31 03:16:05;;;;;;;29.10;12.97;;;;;;;4.02;44.75;100004.84;124333;1102;104075;-70
2023/03/31 03:19:05;;;;;;;33.30;14.85;;;;;;;4.04;45.33;100006.73;124002;1103;104203;-70
2023/03/31 03:21:37;;;;;;;31.10;13.47;;;;;;;4.01;44.80;99998.77;124037;1102;104201;-70
2023/03/31 03:24:09;;;;;;;32.53;13.63;;;;;;;4.00;45.06;99994.37;124031;1102;104224;-71
2023/03/31 03:26:41;;;;;;;31.35;13.00;;;;;;;4.02;45.15;99992.78;123959;1102;101986;-75
2023/03/31 03:29:13;;;;;;;27.90;12.67;;;;;;;4.04;44.93;99995.46;124808;1099;104181;-72
2023/03/31 03:31:44;;;;;;;29.13;13.30;;;;;;;4.04;44.83;99993.75;124801;1099;102284;-71
2023/03/31 03:34:17;;;;;;;27.50;12.67;;;;;;;4.05;44.90;99989.44;124665;1099;104169;-71
2023/03/31 03:36:48;;;;;;;30.17;12.53;;;;;;;4.05;45.00;99987.75;124529;1099;104417;-71
2023/03/31 03:39:20;;;;;;;30.27;13.27;;;;;;;4.05;45.30;99982.56;124584;1099;104277;-71
2023/03/31 03:41:51;;;;;;;28.13;12.20;;;;;;;4.07;44.51;99983.53;124852;1099;101916;-71
2023/03/31 03:44:22;;;;;;;34.33;12.87;;;;;;;4.08;45.54;99982.72;124560;1099;104351;-71
2023/03/31 03:46:53;;;;;;;34.30;13.80;;;;;;;4.10;45.19;99983.69;124605;1099;102516;-71
2023/03/31 03:49:24;;;;;;;29.87;13.03;;;;;;;4.12;44.44;99984.66;124573;1099;104389;-71
2023/03/31 03:51:55;;;;;;;32.40;13.03;;;;;;;4.17;44.89;99978.82;124225;1099;104322;-71
2023/03/31 03:54:26;;;;;;;36.17;12.80;;;;;;;4.19;44.99;99978.11;124211;1099;104216;-72
2023/03/31 03:56:57;;;;;;;30.83;13.03;;;;;;;4.20;45.20;99979.87;124995;1099;101824;-71
2023/03/31 03:59:28;;;;;;;32.23;13.07;;;;;;;4.23;45.15;99976.55;124595;1099;104185;-70
2023/03/31 04:02:00;;;;;;;31.00;14.07;;;;;;;4.26;45.02;99971.52;124489;1099;101987;-71
2023/03/31 04:04:31;;;;;;;36.77;14.83;;;;;;;4.27;45.00;99969.00;124553;1099;104284;-71
2023/03/31 04:07:02;;;;;;;35.80;14.03;;;;;;;4.28;45.25;99964.69;124690;1099;101830;-72
2023/03/31 04:09:34;;;;;;;32.90;14.37;;;;;;;4.28;44.90;99965.56;124896;1098;104275;-71
2023/03/31 04:12:05;;;;;;;34.33;13.00;;;;;;;4.27;44.95;99961.20;124480;1102;101923;-71
2023/03/31 04:14:36;;;;;;;32.87;13.03;;;;;;;4.26;45.04;99946.42;124794;1099;104252;-71
2023/03/31 04:17:09;;;;;;;34.27;13.43;;;;;;;4.23;45.14;99943.67;124883;1099;104182;-75
2023/03/31 04:19:41;;;;;;;32.80;13.07;;;;;;;4.20;45.62;99935.72;124851;1099;102320;-71
2023/03/31 04:22:14;;;;;;;31.27;12.50;;;;;;;4.18;45.39;99937.35;124854;1099;104267;-71
2023/03/31 04:24:45;;;;;;;29.70;12.20;;;;;;;4.14;45.85;99940.59;124919;1099;102652;-69
2023/03/31 04:27:16;;;;;;;33.33;13.30;;;;;;;4.12;45.48;99945.70;124695;1099;103451;-69
2023/03/31 04:29:53;;;;;;;37.53;13.23;;;;;;;4.12;45.20;99943.11;124581;1099;101907;-70
2023/03/31 04:32:25;;;;;;;30.70;13.53;;;;;;;4.12;44.87;99939.63;124583;1099;104184;-71
2023/03/31 04:35:02;;;;;;;38.10;13.60;;;;;;;4.11;45.18;99932.64;124662;1099;104242;-71
2023/03/31 04:37:33;;;;;;;35.73;13.87;;;;;;;4.08;45.86;99929.88;124844;1099;101859;-72
2023/03/31 04:40:08;;;;;;;33.03;14.80;;;;;;;4.06;45.54;99936.70;124798;1099;103802;-71
2023/03/31 04:42:39;;;;;;;31.60;14.10;;;;;;;4.01;45.58;99941.66;124668;1099;104191;-70
2023/03/31 04:45:12;;;;;;;41.00;15.43;;;;;;;3.99;45.87;99939.78;124494;1099;104310;-70
2023/03/31 04:47:43;;;;;;;35.00;14.97;;;;;;;4.00;44.97;99936.39;124575;1099;104283;-70
2023/03/31 04:50:15;;;;;;;31.20;14.23;;;;;;;4.02;45.76;99940.86;124517;1101;103206;-70
2023/03/31 04:52:46;;;;;;;41.73;15.27;;;;;;;4.04;45.31;99943.53;124405;1099;102148;-71
2023/03/31 04:55:17;;;;;;;41.30;14.30;;;;;;;4.09;45.28;99942.95;124584;1099;102231;-72
2023/03/31 04:57:48;;;;;;;42.30;14.57;;;;;;;4.15;45.37;99942.38;124739;1099;104163;-70
2023/03/31 05:00:22;;;;;;;38.07;14.63;;;;;;;4.20;46.09;99938.31;124237;1099;104268;-69
2023/03/31 05:02:54;;;;;;;36.57;14.60;;;;;;;4.25;45.97;99935.95;124776;1099;102077;-71
2023/03/31 05:05:25;;;;;;;34.80;14.37;;;;;;;4.31;45.77;99936.27;124820;1099;104214;-72
2023/03/31 05:07:56;;;;;;;28.97;13.57;;;;;;;4.40;46.30;99928.95;124745;1098;104683;-71
2023/03/31 05:10:28;;;;;;;32.07;14.43;;;;;;;4.52;46.33;99923.50;124879;1099;104329;-72
2023/03/31 05:12:59;;;;;;;37.30;14.00;;;;;;;4.66;45.96;99909.48;124607;1099;104188;-70
2023/03/31 05:15:30;;;;;;;32.37;13.43;;;;;;;4.80;46.41;99894.58;124664;1099;104259;-71
2023/03/31 05:18:01;;;;;;;38.87;14.97;;;;;;;4.89;46.20;99888.91;124730;1099;103365;-74
2023/03/31 05:20:33;;;;;;;42.75;14.90;;;;;;;4.96;46.05;99891.01;124625;1099;102523;-68
2023/03/31 05:23:04;;;;;;;46.90;16.50;;;;;;;5.05;45.83;99890.57;124565;1099;104317;-71
2023/03/31 05:25:41;;;;;;;36.67;15.57;;;;;;;5.19;46.07;99899.03;124898;1099;103349;-78
2023/03/31 05:28:12;;;;;;;32.97;16.57;;;;;;;5.36;46.07;99900.71;125058;1099;104300;-72
2023/03/31 05:30:43;;;;;;;35.95;15.35;;;;;;;5.54;46.11;99881.56;124934;1097;102207;-76
2023/03/31 05:33:15;;;;;;;34.73;15.47;;;;;;;5.74;45.83;99885.07;124969;1099;104179;-73
2023/03/31 05:35:47;;;;;;;34.27;14.53;;;;;;;5.93;46.13;99878.97;125086;1099;102107;-72
2023/03/31 05:38:18;;;;;;;34.77;16.47;;;;;;;6.10;45.98;99874.53;124904;1099;104036;-69
2023/03/31 05:40:50;;;;;;;39.70;15.90;;;;;;;6.22;45.59;99885.48;124962;1099;104185;-74
2023/03/31 05:43:21;;;;;;;34.53;15.37;;;;;;;6.32;45.91;99889.38;124979;1102;105598;-74
2023/03/31 05:45:53;;;;;;;29.20;12.90;;;;;;;6.43;45.87;99890.71;125156;1099;104175;-70
2023/03/31 05:48:24;;;;;;;31.73;14.30;;;;;;;6.53;45.54;99878.07;124925;1102;103079;-73
2023/03/31 05:51:01;;;;;;;37.33;14.13;;;;;;;6.60;45.29;99874.91;125085;1099;104211;-76
2023/03/31 05:53:32;;;;;;;33.00;14.53;;;;;;;6.71;45.47;99884.05;124953;1099;104178;-70
2023/03/31 05:56:08;;;;;;;35.23;14.13;;;;;;;6.88;45.16;99876.92;124854;1099;103106;-70
2023/03/31 05:58:41;;;;;;;30.87;12.23;;;;;;;6.99;45.44;99867.80;124694;1099;104233;-73
2023/03/31 06:01:18;;;;;;;23.03;10.10;;;;;;;7.07;45.19;99862.89;124175;1099;104265;-69
2023/03/31 06:03:54;;;;;;;24.17;10.00;;;;;;;7.24;44.91;99862.67;124242;1099;102327;-70
2023/03/31 06:06:26;;;;;;;24.73;9.77;;;;;;;7.35;44.50;99862.27;124155;1099;104251;-68
2023/03/31 06:08:57;;;;;;;26.63;10.00;;;;;;;7.47;44.72;99861.82;124644;1099;104299;-71
2023/03/31 06:11:30;;;;;;;25.10;9.60;;;;;;;7.61;44.50;99859.73;124105;1099;104173;-69
2023/03/31 06:14:02;;;;;;;24.50;9.73;;;;;;;7.73;45.08;99849.74;124133;1102;103511;-68
2023/03/31 06:16:34;;;;;;;24.47;10.20;;;;;;;7.83;44.73;99856.18;124368;1099;104277;-76
2023/03/31 06:19:05;;;;;;;24.30;9.83;;;;;;;7.95;44.43;99852.22;124337;1099;104160;-69
2023/03/31 06:21:37;;;;;;;23.13;9.77;;;;;;;8.03;44.78;99856.02;124330;1099;104255;-71
2023/03/31 06:24:10;;;;;;;23.70;10.50;;;;;;;8.10;44.42;99845.84;124409;1099;104399;-72
2023/03/31 06:26:42;;;;;;;25.03;10.83;;;;;;;8.14;44.20;99844.22;124435;1099;104297;-70
2023/03/31 06:29:13;;;;;;;21.97;10.30;;;;;;;8.21;44.49;99838.38;124269;1099;104197;-72
2023/03/31 06:31:45;;;;;;;28.90;11.13;;;;;;;8.27;43.90;99833.36;124172;1102;104373;-73
2023/03/31 06:34:16;;;;;;;24.27;10.03;;;;;;;8.33;44.12;99839.63;124121;1099;102038;-72
2023/03/31 06:36:48;;;;;;;27.17;10.57;;;;;;;8.40;44.34;99834.66;124144;1099;102245;-71
2023/03/31 06:39:19;;;;;;;23.63;10.27;;;;;;;8.45;43.70;99840.08;124278;1099;103358;-75
2023/03/31 06:41:58;;;;;;;27.97;10.30;;;;;;;8.48;44.20;99848.03;124514;1099;101852;-70
2023/03/31 06:44:32;;;;;;;22.33;9.80;;;;;;;8.52;43.65;99852.50;124461;1098;104198;-71
2023/03/31 06:47:04;;;;;;;21.13;9.73;;;;;;;8.61;43.95;99839.73;124313;1099;104306;-77
2023/03/31 06:49:38;;;;;;;21.23;9.90;;;;;;;8.73;43.75;99843.61;124212;1099;104188;-72
2023/03/31 06:52:10;;;;;;;20.90;9.87;;;;;;;8.89;43.95;99847.60;124351;1099;101974;-76
2023/03/31 06:54:42;;;;;;;22.63;9.77;;;;;;;8.98;43.32;99840.92;124289;1099;104204;-70
2023/03/31 06:57:13;;;;;;;23.30;9.80;;;;;;;9.14;43.20;99830.94;124179;1099;102811;-72
2023/03/31 06:59:44;;;;;;;23.13;9.83;;;;;;;9.28;42.85;99826.12;124149;1098;104352;-70
2023/03/31 07:02:15;;;;;;;20.27;8.97;;;;;;;9.35;43.26;99822.85;124289;1099;104351;-76
2023/03/31 07:04:47;;;;;;;23.03;8.93;;;;;;;9.48;43.70;99821.47;124544;1099;102381;-72
2023/03/31 07:07:18;;;;;;;23.30;9.90;;;;;;;9.61;42.93;99828.83;124638;1099;104175;-72
2023/03/31 07:09:50;;;;;;;21.93;9.27;;;;;;;9.75;43.33;99831.84;124615;1099;104182;-73
2023/03/31 07:12:21;;;;;;;23.30;9.80;;;;;;;9.89;43.32;99834.85;124458;1099;104169;-72
2023/03/31 07:14:53;;;;;;;23.03;10.07;;;;;;;9.97;43.12;99812.38;124096;1099;104210;-70
2023/03/31 07:17:25;;;;;;;24.73;10.20;;;;;;;10.14;42.48;99818.05;124139;1099;104183;-70
2023/03/31 07:19:56;;;;;;;27.30;10.60;;;;;;;10.28;42.65;99815.79;124076;1100;104255;-71
2023/03/31 07:22:28;;;;;;;31.17;11.27;;;;;;;10.42;42.37;99805.69;124113;1099;104195;-69
2023/03/31 07:25:01;;;;;;;23.07;10.20;;;;;;;10.61;42.52;99807.94;124250;1099;104300;-70
2023/03/31 07:27:32;;;;;;;24.57;9.80;;;;;;;10.71;42.40;99798.53;124243;1099;104185;-71
2023/03/31 07:30:07;;;;;;;22.67;10.50;;;;;;;10.79;41.85;99801.34;124170;1099;104262;-69
2023/03/31 07:32:40;;;;;;;23.37;9.73;;;;;;;10.87;42.38;99798.90;124807;1099;104172;-69
2023/03/31 07:35:12;;;;;;;26.87;10.33;;;;;;;11.00;42.05;99798.34;124120;1099;102251;-69
2023/03/31 07:37:45;;;;;;;21.00;9.70;;;;;;;11.10;41.89;99794.17;124130;1099;104319;-71
2023/03/31 07:40:19;;;;;;;23.87;9.83;;;;;;;11.18;41.59;99797.84;124112;1099;104118;-71
2023/03/31 07:42:51;;;;;;;24.47;9.73;;;;;;;11.21;40.93;99794.41;124103;1099;103655;-71
2023/03/31 07:45:24;;;;;;;23.70;9.40;;;;;;;11.27;40.55;99782.30;124234;1100;102275;-70
2023/03/31 07:47:56;;;;;;;22.87;9.87;;;;;;;11.35;40.74;99787.71;124337;1099;104322;-70
2023/03/31 07:50:29;;;;;;;23.05;9.50;;;;;;;11.41;40.95;99786.97;124207;1099;104262;-77
2023/03/31 07:53:02;;;;;;;23.30;9.47;;;;;;;11.56;41.02;99783.75;124323;1102;104251;-71
2023/03/31 07:55:36;;;;;;;21.50;9.80;;;;;;;11.70;40.57;99790.16;124185;1099;101907;-71
2023/03/31 07:58:14;;;;;;;23.60;9.80;;;;;;;11.81;40.61;99793.91;124123;1099;104217;-70
2023/03/31 08:00:47;;;;;;;24.37;10.37;;;;;;;11.88;40.33;99784.38;124167;1099;104233;-70
2023/03/31 08:03:19;;;;;;;24.13;10.37;;;;;;;11.96;40.45;99779.30;124169;1099;104227;-68
2023/03/31 08:05:52;;;;;;;;;;;;;;;12.05;39.47;99777.72;124135;1099;104204;-70
2023/03/31 08:08:24;;;;;;;27.30;10.65;;;;;;;12.17;40.82;99778.78;124113;1098;104169;-71
2023/03/31 08:11:00;;;;;;;24.43;10.07;;;;;;;12.25;40.21;99779.83;124518;1099;104150;-75
2023/03/31 08:13:34;;;;;;;21.50;10.43;;;;;;;12.31;40.34;99768.50;124233;1102;101984;-71
2023/03/31 08:16:06;;;;;;;25.10;10.20;;;;;;;12.37;40.25;99763.34;124139;1099;102547;-73
2023/03/31 08:18:39;;;;;;;22.43;10.03;;;;;;;12.52;39.66;99760.97;124116;1099;102364;-70
2023/03/31 08:21:23;;;;;;;22.27;9.63;;;;;;;12.68;40.21;99753.31;124146;1102;104213;-71
2023/03/31 08:23:58;;;;;;;21.77;10.07;;;;;;;12.91;40.19;99746.63;124196;1102;104255;-70
2023/03/31 08:26:31;;;;;;;22.03;9.50;;;;;;;13.06;40.04;99739.83;124156;1102;103372;-69
2023/03/31 08:29:05;;;;;;;19.50;9.20;;;;;;;13.15;40.07;99736.41;124111;1102;104344;-69
2023/03/31 08:31:37;;;;;;;23.70;9.73;;;;;;;13.18;39.25;99733.82;124108;1102;104057;-69
2023/03/31 08:34:09;;;;;;;22.23;9.17;;;;;;;13.31;39.45;99733.13;124156;1102;104201;-71
2023/03/31 08:36:41;;;;;;;21.57;9.63;;;;;;;13.44;39.24;99727.14;124142;1102;104223;-70
2023/03/31 08:39:16;;;;;;;21.73;9.70;;;;;;;13.49;39.70;99724.56;124085;1102;104182;-70
2023/03/31 08:41:59;;;;;;;22.73;9.83;;;;;;;13.54;38.87;99717.62;124095;1099;104447;-72
2023/03/31 08:44:34;;;;;;;;;;;;;;;13.59;36.33;99717.67;124107;1099;104288;-72
2023/03/31 08:47:13;;;;;;;22.60;9.33;;;;;;;13.75;38.60;99719.58;124157;1101;104287;-72
2023/03/31 08:49:51;;;;;;;23.30;9.77;;;;;;;13.86;38.91;99709.14;124070;1102;104194;-70
2023/03/31 08:52:29;;;;;;;22.67;10.50;;;;;;;13.99;38.63;99708.41;124082;1102;104341;-71
2023/03/31 08:55:05;;;;;;;27.63;9.87;;;;;;;14.05;39.41;99706.68;124133;1102;102448;-72
2023/03/31 08:57:47;;;;;;;21.97;9.50;;;;;;;14.11;39.11;99704.09;124132;1102;104194;-76
2023/03/31 09:00:20;;;;;;;21.53;8.57;;;;;;;14.10;37.87;99707.59;124064;1102;104249;-69
2023/03/31 09:03:00;;;;;;;17.27;6.70;;;;;;;14.09;38.35;99696.16;124270;1102;104323;-70
2023/03/31 09:05:44;;;;;;;18.00;7.37;;;;;;;14.09;37.00;99690.89;124079;1102;104251;-69
2023/03/31 09:08:27;;;;;;;15.33;6.57;;;;;;;14.09;38.34;99703.20;124101;1099;104267;-70
2023/03/31 09:11:05;;;;;;;16.37;6.70;;;;;;;14.02;37.23;99689.97;124025;1102;104171;-70
2023/03/31 09:13:56;;;;;;;15.63;6.30;;;;;;;14.03;36.93;99693.48;124001;1099;104275;-70
2023/03/31 09:16:33;;;;;;;16.47;6.00;;;;;;;14.04;37.52;99682.06;124130;1099;104188;-69
2023/03/31 09:19:12;;;;;;;12.83;5.77;;;;;;;14.13;36.99;99670.69;124153;1102;104208;-69
2023/03/31 09:21:47;;;;;;;15.00;6.00;;;;;;;14.26;36.54;99663.73;124323;1099;104230;-72
2023/03/31 09:24:27;;;;;;;11.83;5.80;;;;;;;14.38;36.60;99664.73;124044;1102;104223;-70
2023/03/31 09:27:01;;;;;;;16.40;5.57;;;;;;;14.52;36.10;99653.36;124198;1099;104248;-69
2023/03/31 09:29:39;;;;;;;;;;;;;;;14.59;35.73;99644.62;124154;1102;103477;-71
2023/03/31 09:32:17;;;;;;;9.80;4.90;;;;;;;14.59;35.21;99649.89;124279;1099;102131;-74
2023/03/31 09:34:56;;;;;;;11.40;5.10;;;;;;;14.68;36.29;99649.98;124589;1099;104454;-72
2023/03/31 09:37:33;;;;;;;16.60;5.20;;;;;;;14.74;35.95;99639.45;124456;1102;104217;-70
2023/03/31 09:40:15;;;;;;;13.15;5.45;;;;;;;14.83;36.16;99635.95;124138;1099;104290;-70
2023/03/31 09:42:51;;;;;;;12.17;5.53;;;;;;;14.91;35.56;99636.89;124080;1102;104242;-71
2023/03/31 09:45:32;;;;;;;12.43;5.33;;;;;;;15.02;35.51;99633.39;125020;1099;104245;-79
2023/03/31 09:48:14;;;;;;;14.50;5.27;;;;;;;15.10;35.51;99624.62;124941;1099;103101;-74
2023/03/31 09:50:50;;;;;;;7.97;4.20;;;;;;;15.16;34.80;99623.78;124970;1099;104181;-76
2023/03/31 09:53:29;;;;;;;10.13;4.87;;;;;;;15.31;34.82;99619.40;124930;1099;103850;-76
2023/03/31 09:56:04;;;;;;;8.17;4.03;;;;;;;15.42;34.29;99612.37;124857;1099;103648;-70
2023/03/31 09:58:42;;;;;;;12.57;4.70;;;;;;;15.47;34.44;99615.89;124116;1099;104259;-71
2023/03/31 10:01:15;;;;;;;10.00;4.10;;;;;;;15.45;34.38;99612.37;124136;1099;104388;-70
2023/03/31 10:03:52;;;;;;;11.27;4.30;;;;;;;15.38;33.34;99616.77;124013;1099;104239;-71
2023/03/31 10:06:27;;;;;;;9.53;4.07;;;;;;;15.39;34.76;99604.43;124162;1099;104217;-71
2023/03/31 10:09:01;;;;;;;10.33;4.17;;;;;;;15.40;34.72;99606.20;124134;1099;104256;-70
2023/03/31 10:11:33;;;;;;;9.70;4.17;;;;;;;15.44;33.93;99607.95;124207;1099;102568;-70
2023/03/31 10:14:12;;;;;;;12.30;4.27;;;;;;;15.46;33.84;99601.80;124129;1099;104265;-70
2023/03/31 10:16:48;;;;;;;11.40;4.67;;;;;;;15.50;34.16;99605.32;124076;1101;104238;-72
2023/03/31 10:19:25;;;;;;;11.07;4.57;;;;;;;15.48;34.50;99599.16;124632;1099;104730;-72
2023/03/31 10:22:01;;;;;;;11.47;4.83;;;;;;;15.50;34.07;99592.10;124262;1099;104201;-71
2023/03/31 10:24:41;;;;;;;14.20;5.17;;;;;;;15.52;34.65;99595.65;125304;1099;104176;-72
2023/03/31 10:27:22;;;;;;;16.20;4.70;;;;;;;15.58;33.75;99595.66;124379;1099;101981;-72
2023/03/31 10:30:05;;;;;;;9.93;4.33;;;;;;;15.67;33.64;99592.12;125081;1099;104172;-77
2023/03/31 10:32:41;;;;;;;11.80;4.37;;;;;;;15.77;34.28;99593.93;124914;1099;104226;-76
2023/03/31 10:35:26;;;;;;;11.17;4.47;;;;;;;15.86;33.98;99586.86;125077;1096;104201;-72
2023/03/31 10:38:02;;;;;;;11.03;4.40;;;;;;;15.93;33.52;99589.50;124206;1099;104150;-68
2023/03/31 10:40:41;;;;;;;7.97;4.37;;;;;;;16.01;33.91;99581.56;124945;1099;104270;-73
2023/03/31 10:43:19;;;;;;;9.80;4.20;;;;;;;16.03;33.83;99576.27;125012;1099;102599;-70
2023/03/31 10:45:53;;;;;;;7.53;3.90;;;;;;;16.01;33.22;99572.75;124873;1100;104236;-71
2023/03/31 10:48:28;;;;;;;12.23;4.37;;;;;;;15.98;33.35;99570.98;124608;1099;104238;-70
2023/03/31 10:51:06;;;;;;;9.90;4.40;;;;;;;16.03;33.62;99560.39;124595;1099;104740;-69
2023/03/31 10:53:45;;;;;;;9.40;4.40;;;;;;;16.11;33.18;99570.09;124210;1099;104213;-71
2023/03/31 10:56:33;;;;;;;9.33;4.13;;;;;;;16.12;33.38;99558.61;124563;1098;107160;-70
2023/03/31 10:59:23;;;;;;;15.30;4.80;;;;;;;16.17;33.50;99555.95;124664;1099;102386;-70
2023/03/31 11:05:06;;;;;;;11.23;5.00;;;;;;;16.24;32.68;99551.55;124251;1102;104238;-71
2023/03/31 11:07:54;;;;;;;14.00;4.40;;;;;;;16.33;33.35;99541.80;123962;1102;104210;-71
2023/03/31 11:10:46;;;;;;;11.43;4.43;;;;;;;16.48;32.73;99540.84;123923;1102;102076;-72
2023/03/31 11:13:26;;;;;;;11.27;4.07;;;;;;;16.60;32.85;99536.42;123909;1102;104423;-72
2023/03/31 11:16:08;;;;;;;9.87;4.53;;;;;;;16.70;32.70;99531.07;123913;1102;107881;-76
2023/03/31 11:19:03;;;;;;;11.47;4.67;;;;;;;16.81;32.91;99528.37;123896;1102;104341;-72
2023/03/31 11:21:47;;;;;;;11.45;4.53;;;;;;;16.83;33.19;99529.23;123964;1102;104197;-69
2023/03/31 11:24:32;;;;;;;9.95;4.65;;;;;;;16.84;32.66;99527.45;123917;1102;104284;-71
2023/03/31 11:27:22;;;;;;;10.67;4.50;;;;;;;16.78;32.52;99530.13;123869;1105;104184;-70
2023/03/31 11:30:07;;;;;;;9.73;4.80;;;;;;;16.78;32.16;99533.69;123947;1102;104214;-70
2023/03/31 11:32:55;;;;;;;10.03;4.33;;;;;;;16.75;32.25;99523.11;123884;1105;103954;-71
2023/03/31 11:35:47;;;;;;;11.00;5.07;;;;;;;16.70;32.51;99527.52;123956;1102;103681;-69
2023/03/31 11:38:37;;;;;;;13.23;5.43;;;;;;;16.65;32.27;99518.73;123966;1102;104172;-71
2023/03/31 11:41:12;;;;;;;10.00;4.90;;;;;;;16.60;32.25;99523.17;123867;1105;104204;-70
2023/03/31 11:43:49;;;;;;;12.67;5.57;;;;;;;16.56;32.35;99522.28;123874;1106;102221;-69
2023/03/31 11:46:24;;;;;;;13.87;5.00;;;;;;;16.50;32.21;99514.37;123917;1102;104218;-70
2023/03/31 11:48:58;;;;;;;14.33;5.93;;;;;;;16.45;32.82;99519.68;123917;1103;104342;-70
2023/03/31 11:51:35;;;;;;;13.47;5.50;;;;;;;16.40;32.12;99513.53;123984;1105;102143;-71
2023/03/31 11:54:14;;;;;;;13.83;5.27;;;;;;;16.39;32.30;99516.19;125480;1101;104266;-69